Time;durP1;ratioP1;P1;durP2;ratioP2;P2;SDS_P1;SDS_P2;PMS_P1;PMS_P2;Temp;Humidity;BMP_temperature;BMP_pressure;BME280_temperature;BME280_humidity;BME280_pressure;Samples;Min_cycle;Max_cycle;Signal;HPM_P1;HPM_P2
2022/08/11 00:01:19;;;;;;;;;7.33;7.00;;;;;-146.67;100.00;57155.34;5002153;28;61773;-79
2022/08/11 00:03:57;;;;;;;;;6.67;6.67;;;;;-146.67;100.00;57155.34;5002729;28;61931;-79
2022/08/11 00:06:30;;;;;;;;;7.33;7.00;;;;;-146.67;100.00;57155.34;5003010;28;61818;-79
2022/08/11 00:08:56;;;;;;;;;9.00;5.67;;;;;-146.67;100.00;57155.34;5000284;28;64033;-79
2022/08/11 00:11:33;;;;;;;;;7.00;7.00;;;;;-146.67;100.00;57155.34;5002600;28;61865;-79
2022/08/11 00:13:59;;;;;;;;;9.75;8.00;;;;;-146.67;100.00;57155.34;5000859;28;61892;-79
2022/08/11 00:16:26;;;;;;;;;8.25;7.75;;;;;-146.67;100.00;57155.34;5002260;28;61809;-79
2022/08/11 00:18:54;;;;;;;;;8.00;8.00;;;;;-146.67;100.00;57155.34;5001725;28;61774;-79
2022/08/11 00:21:24;;;;;;;;;11.00;6.67;;;;;-146.67;100.00;57155.34;5001936;28;62131;-79
2022/08/11 00:23:55;;;;;;;;;7.33;7.33;;;;;-146.67;100.00;57155.34;5001819;28;61743;-79
2022/08/11 00:26:22;;;;;;;;;6.00;6.00;;;;;-146.67;100.00;57155.34;5000886;28;62122;-79
2022/08/11 00:28:50;;;;;;;;;7.50;6.50;;;;;-146.67;100.00;57155.34;5001282;28;62893;-79
2022/08/11 00:31:32;;;;;;;;;6.00;6.00;;;;;-146.67;100.00;57155.34;5001696;28;61877;-78
2022/08/11 00:34:00;;;;;;;;;7.50;7.00;;;;;-146.67;100.00;57155.34;5001810;28;61912;-79
2022/08/11 00:36:37;;;;;;;;;7.75;7.75;;;;;-146.67;100.00;57155.34;5002195;28;61782;-79
2022/08/11 00:39:05;;;;;;;;;8.67;7.00;;;;;-146.67;100.00;57155.34;4983635;28;63784;-79
2022/08/11 00:41:46;;;;;;;;;7.00;6.50;;;;;-146.67;100.00;57155.34;5001889;28;61823;-78
2022/08/11 00:44:33;;;;;;;;;6.67;5.33;;;;;-146.67;100.00;57155.34;5001418;28;62061;-78
2022/08/11 00:47:22;;;;;;;;;7.25;7.25;;;;;-146.67;100.00;57155.34;5002269;28;61743;-79
2022/08/11 00:50:00;;;;;;;;;7.00;7.00;;;;;-146.67;100.00;57155.34;4986434;28;64805;-79
2022/08/11 00:52:32;;;;;;;;;9.25;8.00;;;;;-146.67;100.00;57155.34;4987538;28;61839;-79
2022/08/11 00:55:02;;;;;;;;;6.25;6.25;;;;;-146.67;100.00;57155.34;4987414;28;61865;-79
2022/08/11 00:57:55;;;;;;;;;7.00;7.00;;;;;-146.67;100.00;57155.34;5005107;28;62095;-79
2022/08/11 01:00:23;;;;;;;;;7.75;6.00;;;;;-146.67;100.00;57155.34;5004272;28;62130;-79
2022/08/11 01:03:17;;;;;;;;;6.75;5.00;;;;;-146.67;100.00;57155.34;5003391;28;61798;-79
2022/08/11 01:05:43;;;;;;;;;7.50;7.50;;;;;-146.67;100.00;57155.34;5005114;28;61987;-79
2022/08/11 01:08:45;;;;;;;;;7.25;7.25;;;;;-146.67;100.00;57155.34;4987101;28;62095;-79
2022/08/11 01:11:44;;;;;;;;;9.67;9.33;;;;;-146.67;100.00;57155.34;5004511;28;62156;-79
2022/08/11 01:14:51;;;;;;;;;10.00;7.00;;;;;-146.67;100.00;57155.34;4987553;28;61900;-79
2022/08/11 01:17:42;;;;;;;;;6.00;6.00;;;;;-146.67;100.00;57155.34;4996700;28;61778;-79
2022/08/11 01:20:38;;;;;;;;;7.00;7.00;;;;;-146.67;100.00;57155.34;4987101;28;61832;-79
2022/08/11 01:23:29;;;;;;;;;8.75;7.25;;;;;-146.67;100.00;57155.34;4986275;28;63520;-78
2022/08/11 01:26:31;;;;;;;;;8.75;8.25;;;;;-146.67;100.00;57155.34;5004588;28;61847;-79
2022/08/11 01:28:57;;;;;;;;;6.00;6.00;;;;;-146.67;100.00;57155.34;5004536;28;61902;-79
2022/08/11 01:31:28;;;;;;;;;8.00;5.75;;;;;-146.67;100.00;57155.34;5004481;28;61755;-79
2022/08/11 01:34:12;;;;;;;;;5.50;5.25;;;;;-146.67;100.00;57155.34;4986481;28;63575;-79
2022/08/11 01:37:05;;;;;;;;;7.50;5.00;;;;;-146.67;100.00;57155.34;5004704;28;62057;-79
2022/08/11 01:40:01;;;;;;;;;10.75;6.00;;;;;-146.67;100.00;57155.34;4986939;28;61915;-79
2022/08/11 01:45:40;;;;;;;;;7.25;6.75;;;;;-146.67;100.00;57155.34;5003097;28;62447;-78
2022/08/11 01:48:21;;;;;;;;;4.50;4.50;;;;;-146.67;100.00;57155.34;5004246;28;62038;-78
2022/08/11 01:50:55;;;;;;;;;5.25;5.25;;;;;-146.67;100.00;57155.34;5004535;28;61881;-79
2022/08/11 01:53:29;;;;;;;;;6.50;6.50;;;;;-146.67;100.00;57155.34;5002677;28;61865;-78
2022/08/11 01:56:15;;;;;;;;;8.50;6.75;;;;;-146.67;100.00;57155.34;5002197;28;65195;-79
2022/08/11 01:58:52;;;;;;;;;8.00;5.25;;;;;-146.67;100.00;57155.34;5002758;28;61975;-79
2022/08/11 02:01:41;;;;;;;;;8.75;7.00;;;;;-146.67;100.00;57155.34;5002430;28;61961;-79
2022/08/11 02:04:25;;;;;;;;;5.75;5.75;;;;;-146.67;100.00;57155.34;5004155;28;61977;-79
2022/08/11 02:07:17;;;;;;;;;8.75;5.25;;;;;-146.67;100.00;57155.34;5003453;28;61849;-79
2022/08/11 02:10:01;;;;;;;;;8.75;6.25;;;;;-146.67;100.00;57155.34;5003887;28;61802;-79
2022/08/11 02:12:26;;;;;;;;;8.25;7.75;;;;;-146.67;100.00;57155.34;5003765;28;61859;-79
2022/08/11 02:15:16;;;;;;;;;5.50;4.75;;;;;-146.67;100.00;57155.34;5003688;28;61916;-79
2022/08/11 02:18:20;;;;;;;;;10.00;7.67;;;;;-146.67;100.00;57155.34;5002037;28;64944;-79
2022/08/11 02:24:16;;;;;;;;;10.25;6.00;;;;;-146.67;100.00;57155.34;4923249;28;62045;-79
2022/08/11 02:27:00;;;;;;;;;8.00;8.00;;;;;-146.67;100.00;57155.34;4923370;28;61848;-79
2022/08/11 02:29:32;;;;;;;;;8.00;6.50;;;;;-146.67;100.00;57155.34;4922709;28;61997;-79
2022/08/11 02:35:17;;;;;;;;;6.50;5.50;;;;;-146.67;100.00;57155.34;4923619;28;61980;-79
2022/08/11 02:38:11;;;;;;;;;6.25;6.00;;;;;-146.67;100.00;57155.34;4923521;28;62037;-79
2022/08/11 02:44:28;;;;;;;;;8.75;7.25;;;;;-146.67;100.00;57155.34;4915827;28;61942;-79
2022/08/11 02:47:26;;;;;;;;;7.75;7.75;;;;;-146.67;100.00;57155.34;4919268;28;62295;-78
2022/08/11 02:49:55;;;;;;;;;8.50;7.50;;;;;-146.67;100.00;57155.34;4923607;28;62021;-79
2022/08/11 02:52:39;;;;;;;;;10.75;9.25;;;;;-146.67;100.00;57155.34;4922736;28;62410;-79
2022/08/11 02:55:25;;;;;;;;;6.25;6.25;;;;;-146.67;100.00;57155.34;4923063;28;61945;-79
2022/08/11 02:58:03;;;;;;;;;9.25;8.00;;;;;-146.67;100.00;57155.34;4954788;28;61964;-78
2022/08/11 03:00:48;;;;;;;;;9.00;9.00;;;;;-146.67;100.00;57155.34;5001596;28;61814;-78
2022/08/11 03:03:28;;;;;;;;;12.25;10.25;;;;;-146.67;100.00;57155.34;5000983;28;62814;-78
2022/08/11 03:06:18;;;;;;;;;10.75;8.75;;;;;-146.67;100.00;57155.34;5002877;28;61851;-79
2022/08/11 03:08:51;;;;;;;;;8.50;8.50;;;;;-146.67;100.00;57155.34;5001672;28;61855;-79
2022/08/11 03:17:32;;;;;;;;;11.25;9.25;;;;;-146.67;100.00;57155.34;5003279;28;61821;-79
2022/08/11 03:20:13;;;;;;;;;7.00;7.00;;;;;-146.67;100.00;57155.34;4985272;28;61811;-79
2022/08/11 03:23:01;;;;;;;;;10.50;9.75;;;;;-146.67;100.00;57155.34;5003008;28;61807;-79
2022/08/11 03:26:03;;;;;;;;;13.25;10.75;;;;;-146.67;100.00;57155.34;5002061;28;62569;-78
2022/08/11 03:28:31;;;;;;;;;11.75;10.75;;;;;-146.67;100.00;57155.34;5001481;28;61984;-78
2022/08/11 03:31:24;;;;;;;;;13.00;9.25;;;;;-146.67;100.00;57155.34;5003069;28;61800;-78
2022/08/11 03:34:02;;;;;;;;;10.00;9.25;;;;;-146.67;100.00;57155.34;5003270;28;62013;-78
2022/08/11 03:36:58;;;;;;;;;9.00;9.00;;;;;-146.67;100.00;57155.34;5000874;28;63748;-79
2022/08/11 03:39:48;;;;;;;;;15.50;11.75;;;;;-146.67;100.00;57155.34;5002475;28;61920;-79
2022/08/11 03:42:32;;;;;;;;;9.75;9.25;;;;;-146.67;100.00;57155.34;5002815;28;61943;-78
2022/08/11 03:45:15;;;;;;;;;13.50;10.50;;;;;-146.67;100.00;57155.34;5002305;28;61919;-78
2022/08/11 03:48:14;;;;;;;;;14.75;11.50;;;;;-146.67;100.00;57155.34;4964713;28;65206;-79
2022/08/11 03:50:52;;;;;;;;;10.25;10.25;;;;;-146.67;100.00;57155.34;4964981;28;61842;-79
2022/08/11 03:53:41;;;;;;;;;9.75;9.75;;;;;-146.67;100.00;57155.34;4982690;28;61843;-79
2022/08/11 03:56:55;;;;;;;;;12.25;11.50;;;;;-146.67;100.00;57155.34;4981583;28;61890;-78
2022/08/11 03:59:33;;;;;;;;;15.75;14.00;;;;;-146.67;100.00;57155.34;4981116;28;63683;-79
2022/08/11 04:02:18;;;;;;;;;14.50;13.00;;;;;-146.67;100.00;57155.34;4964874;28;61836;-79
2022/08/11 04:04:43;;;;;;;;;8.50;8.00;;;;;-146.67;100.00;57155.34;4981255;28;62031;-79
2022/08/11 04:07:43;;;;;;;;;10.75;10.00;;;;;-146.67;100.00;57155.34;4981637;28;62010;-79
2022/08/11 04:10:30;;;;;;;;;11.75;11.25;;;;;-146.67;100.00;57155.34;4982173;28;62002;-79
2022/08/11 04:13:20;;;;;;;;;11.75;11.25;;;;;-146.67;100.00;57155.34;4964828;28;61969;-79
2022/08/11 04:16:27;;;;;;;;;14.50;11.75;;;;;-146.67;100.00;57155.34;4981126;28;61965;-79
2022/08/11 04:19:12;;;;;;;;;10.00;10.00;;;;;-146.67;100.00;57155.34;4903227;29;61923;-79
2022/08/11 04:22:05;;;;;;;;;11.00;11.00;;;;;-146.67;100.00;57155.34;4902585;29;62062;-79
2022/08/11 04:24:54;;;;;;;;;11.75;11.25;;;;;-146.67;100.00;57155.34;4904863;28;61945;-79
2022/08/11 04:27:25;;;;;;;;;11.25;11.25;;;;;-146.67;100.00;57155.34;4868189;29;61993;-80
2022/08/11 04:30:03;;;;;;;;;9.50;9.50;;;;;-146.67;100.00;57155.34;4868150;29;62063;-79
2022/08/11 04:32:58;;;;;;;;;13.50;11.75;;;;;-146.67;100.00;57155.34;4867632;29;62196;-80
2022/08/11 04:35:43;;;;;;;;;15.00;12.00;;;;;-146.67;100.00;57155.34;4812419;29;62008;-78
2022/08/11 04:38:46;;;;;;;;;10.75;10.75;;;;;-146.67;100.00;57155.34;4827960;29;62045;-78
2022/08/11 04:45:19;;;;;;;;;12.50;9.50;;;;;-146.67;100.00;57155.34;4822928;29;61945;-79
2022/08/11 05:03:34;;;;;;;;;9.75;9.75;;;;;-146.67;100.00;57155.34;4868605;29;61818;-78
2022/08/11 05:06:21;;;;;;;;;9.00;9.00;;;;;-146.67;100.00;57155.34;4906327;29;61948;-78
2022/08/11 05:09:13;;;;;;;;;11.25;10.50;;;;;-146.67;100.00;57155.34;4905521;29;63065;-78
2022/08/11 05:12:24;;;;;;;;;10.75;10.00;;;;;-146.67;100.00;57155.34;4938130;28;61846;-78
2022/08/11 05:34:52;;;;;;;;;10.50;9.00;;;;;-146.67;100.00;57155.34;4848297;29;61903;-76
2022/08/11 05:37:24;;;;;;;;;10.00;9.00;;;;;-146.67;100.00;57155.34;4848407;29;62043;-76
2022/08/11 05:56:59;;;;;;;;;11.00;11.00;;;;;-146.67;100.00;57155.34;4925138;28;62030;-77
2022/08/11 05:59:27;;;;;;;;;11.75;10.00;;;;;-146.67;100.00;57155.34;4914694;28;61996;-76
2022/08/11 06:01:59;;;;;;;;;13.75;12.00;;;;;-146.67;100.00;57155.34;4918657;28;62006;-77
2022/08/11 06:04:27;;;;;;;;;9.25;9.25;;;;;-146.67;100.00;57155.34;4993995;28;61806;-76
2022/08/11 06:06:56;;;;;;;;;13.25;8.75;;;;;-146.67;100.00;57155.34;4974984;28;61934;-76
2022/08/11 06:09:45;;;;;;;;;10.75;9.25;;;;;-146.67;100.00;57155.34;4992340;28;61778;-76
2022/08/11 06:12:20;;;;;;;;;10.00;8.50;;;;;-146.67;100.00;57155.34;4999680;28;62074;-77
2022/08/11 06:14:49;;;;;;;;;7.50;7.50;;;;;-146.67;100.00;57155.34;4991998;28;61771;-77
2022/08/11 06:17:22;;;;;;;;;11.00;11.00;;;;;-146.67;100.00;57155.34;4992127;28;61992;-76
2022/08/11 06:19:50;;;;;;;;;10.00;9.75;;;;;-146.67;100.00;57155.34;4995049;28;61774;-78
2022/08/11 06:22:21;;;;;;;;;15.00;8.75;;;;;-146.67;100.00;57155.34;4991482;28;62139;-77
2022/08/11 06:24:54;;;;;;;;;11.75;7.50;;;;;-146.67;100.00;57155.34;4982928;28;62806;-77
2022/08/11 06:27:21;;;;;;;;;9.75;9.75;;;;;-146.67;100.00;57155.34;4983561;28;61825;-77
2022/08/11 06:29:50;;;;;;;;;9.00;8.25;;;;;-146.67;100.00;57155.34;4983906;28;61921;-77
2022/08/11 06:32:17;;;;;;;;;9.50;7.75;;;;;-146.67;100.00;57155.34;4983911;28;62113;-76
2022/08/11 06:35:12;;;;;;;;;8.00;7.50;;;;;-146.67;100.00;57155.34;4982962;28;62236;-77
2022/08/11 06:37:49;;;;;;;;;7.25;7.25;;;;;-146.67;100.00;57155.34;4978545;28;62011;-77
2022/08/11 06:43:53;;;;;;;;;10.33;8.00;;;;;-146.67;100.00;57155.34;4988417;28;61677;-78
2022/08/11 06:46:28;;;;;;;;;7.75;5.50;;;;;-146.67;100.00;57155.34;5001607;28;61856;-78
2022/08/11 06:48:55;;;;;;;;;5.33;5.33;;;;;-146.67;100.00;57155.34;5002698;28;61860;-80
2022/08/11 06:51:21;;;;;;;;;6.50;6.50;;;;;-146.67;100.00;57155.34;5001516;28;62088;-76
2022/08/11 06:53:56;;;;;;;;;8.67;7.33;;;;;-146.67;100.00;57155.34;4996450;28;61770;-79
2022/08/11 07:02:17;;;;;;;;;8.00;7.00;;;;;-146.67;100.00;57155.34;4988232;28;61808;-83
2022/08/11 07:04:52;;;;;;;;;7.00;6.00;;;;;-146.67;100.00;57155.34;4981593;28;61852;-78
2022/08/11 07:16:30;;;;;;;;;8.67;7.67;;;;;-146.67;100.00;57155.34;4981715;28;61950;-78
2022/08/11 07:31:07;;;;;;;;;9.00;5.67;;;;;-146.67;100.00;57155.34;4940805;28;62420;-78
2022/08/11 07:34:05;;;;;;;;;7.33;5.67;;;;;-146.67;100.00;57155.34;4941456;28;61837;-78
2022/08/11 07:36:33;;;;;;;;;6.00;6.00;;;;;-146.67;100.00;57155.34;4941216;28;61961;-78
2022/08/11 07:39:01;;;;;;;;;6.75;6.75;;;;;-146.67;100.00;57155.34;4925568;28;61799;-78
2022/08/11 07:41:29;;;;;;;;;7.50;6.00;;;;;-146.67;100.00;57155.34;4940903;28;61844;-78
2022/08/11 07:44:08;;;;;;;;;6.00;6.00;;;;;-146.67;100.00;57155.34;4948123;28;62093;-78
2022/08/11 07:52:35;;;;;;;;;5.50;5.50;;;;;-146.67;100.00;57155.34;4940830;28;61966;-78
2022/08/11 07:55:05;;;;;;;;;10.25;7.50;;;;;-146.67;100.00;57155.34;4927215;28;62027;-79
2022/08/11 08:19:37;;;;;;;;;7.00;6.00;;;;;-146.67;100.00;57155.34;4986033;28;61713;-78
2022/08/11 08:22:02;;;;;;;;;5.33;3.67;;;;;-146.67;100.00;57155.34;4984455;28;61707;-78
2022/08/11 08:24:28;;;;;;;;;6.00;6.00;;;;;-146.67;100.00;57155.34;4967242;28;63540;-78
2022/08/11 08:26:58;;;;;;;;;5.00;5.00;;;;;-146.67;100.00;57155.34;4968143;28;61840;-78
2022/08/11 08:32:20;;;;;;;;;7.00;5.00;;;;;-146.67;100.00;57155.34;4985383;28;61820;-78
2022/08/11 08:34:49;;;;;;;;;5.33;4.33;;;;;-146.67;100.00;57155.34;4967371;28;62993;-77
2022/08/11 08:37:19;;;;;;;;;5.33;5.33;;;;;-146.67;100.00;57155.34;4984414;28;61704;-78
2022/08/11 08:39:47;;;;;;;;;3.33;3.33;;;;;-146.67;100.00;57155.34;4985917;28;62119;-78
2022/08/11 08:42:18;;;;;;;;;6.00;6.00;;;;;-146.67;100.00;57155.34;4984169;28;61769;-79
2022/08/11 08:44:49;;;;;;;;;6.00;6.00;;;;;-146.67;100.00;57155.34;4998182;28;62753;-78
2022/08/11 08:47:18;;;;;;;;;6.67;6.33;;;;;-146.67;100.00;57155.34;4986843;28;62249;-78
2022/08/11 08:50:04;;;;;;;;;7.33;6.00;;;;;-146.67;100.00;57155.34;5005357;28;62417;-78
2022/08/11 08:52:46;;;;;;;;;4.00;4.00;;;;;-146.67;100.00;57155.34;5005411;28;61900;-78
2022/08/11 08:55:17;;;;;;;;;6.67;5.67;;;;;-146.67;100.00;57155.34;5003935;28;62827;-78
2022/08/11 08:57:45;;;;;;;;;6.33;4.67;;;;;-146.67;100.00;57155.34;5005118;28;61925;-79
2022/08/11 09:00:13;;;;;;;;;4.00;4.00;;;;;-146.67;100.00;57155.34;5004684;28;61755;-78
2022/08/11 09:02:40;;;;;;;;;5.00;3.00;;;;;-146.67;100.00;57155.34;5005000;28;61817;-78
2022/08/11 09:05:08;;;;;;;;;6.33;5.00;;;;;-146.67;100.00;57155.34;5002840;28;63775;-79
2022/08/11 09:07:35;;;;;;;;;6.33;5.00;;;;;-146.67;100.00;57155.34;5004911;28;62006;-78
2022/08/11 09:10:01;;;;;;;;;5.67;5.67;;;;;-146.67;100.00;57155.34;5003978;28;61871;-78
2022/08/11 09:12:30;;;;;;;;;5.67;4.00;;;;;-146.67;100.00;57155.34;5004972;28;61822;-78
2022/08/11 09:14:59;;;;;;;;;5.00;5.00;;;;;-146.67;100.00;57155.34;5004020;28;61832;-78
2022/08/11 09:17:26;;;;;;;;;5.00;5.00;;;;;-146.67;100.00;57155.34;5004326;28;61854;-78
2022/08/11 09:19:59;;;;;;;;;4.33;4.33;;;;;-146.67;100.00;57155.34;5003350;28;62017;-78
2022/08/11 09:28:03;;;;;;;;;6.00;4.67;;;;;-146.67;100.00;57155.34;5004327;28;61790;-78
2022/08/11 09:30:29;;;;;;;;;3.00;3.00;;;;;-146.67;100.00;57155.34;5002728;28;61920;-79
2022/08/11 09:32:59;;;;;;;;;3.67;3.67;;;;;-146.67;100.00;57155.34;5003298;28;62170;-78
2022/08/11 09:35:29;;;;;;;;;5.00;5.00;;;;;-146.67;100.00;57155.34;5003565;28;62806;-79
2022/08/11 09:40:46;;;;;;;;;4.00;4.00;;;;;-146.67;100.00;57155.34;5004426;28;61836;-78
2022/08/11 09:46:02;;;;;;;;;8.67;4.00;;;;;-146.67;100.00;57155.34;5003147;28;61853;-78
2022/08/11 09:48:33;;;;;;;;;5.33;4.33;;;;;-146.67;100.00;57155.34;5003887;28;61820;-78
2022/08/11 09:51:00;;;;;;;;;4.00;4.00;;;;;-146.67;100.00;57155.34;5004248;28;61767;-79
2022/08/11 09:53:30;;;;;;;;;6.00;4.00;;;;;-146.67;100.00;57155.34;5004022;28;61929;-78
2022/08/11 09:55:57;;;;;;;;;4.67;4.33;;;;;-146.67;100.00;57155.34;5002037;28;64295;-78
2022/08/11 09:58:23;;;;;;;;;4.67;4.67;;;;;-146.67;100.00;57155.34;5002268;28;61908;-78
2022/08/11 10:00:50;;;;;;;;;4.33;4.33;;;;;-146.67;100.00;57155.34;5002345;28;62211;-78
2022/08/11 10:03:22;;;;;;;;;4.00;4.00;;;;;-146.67;100.00;57155.34;5002660;28;61785;-78
2022/08/11 10:08:39;;;;;;;;;6.33;3.33;;;;;-146.67;100.00;57155.34;5003698;28;62067;-78
2022/08/11 10:11:10;;;;;;;;;7.00;4.00;;;;;-146.67;100.00;57155.34;5004078;28;61956;-79
2022/08/11 10:16:28;;;;;;;;;4.33;3.67;;;;;-146.67;100.00;57155.34;5002808;28;61739;-77
2022/08/11 10:18:56;;;;;;;;;4.00;4.00;;;;;-146.67;100.00;57155.34;5003735;28;61946;-78
2022/08/11 10:21:39;;;;;;;;;4.33;3.67;;;;;-146.67;100.00;57155.34;5002413;28;61910;-78
2022/08/11 10:27:01;;;;;;;;;4.00;4.00;;;;;-146.67;100.00;57155.34;5002861;28;62094;-78
2022/08/11 10:35:07;;;;;;;;;6.33;5.33;;;;;-146.67;100.00;57155.34;5003783;28;61945;-79
2022/08/11 10:37:36;;;;;;;;;5.00;5.00;;;;;-146.67;100.00;57155.34;5001340;28;65077;-79
2022/08/11 10:40:04;;;;;;;;;6.67;5.67;;;;;-146.67;100.00;57155.34;5002031;28;61916;-79
2022/08/11 10:48:09;;;;;;;;;6.00;6.00;;;;;;;;5121015;27;61837;-77
2022/08/11 10:58:50;;;;;;;;;6.00;6.00;;;;;;;;5120773;27;61979;-77
2022/08/11 11:01:23;;;;;;;;;6.00;6.00;;;;;;;;5118240;27;63772;-77
2022/08/11 11:03:53;;;;;;;;;4.00;4.00;;;;;;;;5120619;27;61698;-78
2022/08/11 11:06:32;;;;;;;;;5.33;5.33;;;;;;;;5120427;27;61961;-77
2022/08/11 11:09:05;;;;;;;;;5.67;5.67;;;;;;;;5120680;27;61862;-80
2022/08/11 11:19:52;;;;;;;;;4.00;4.00;;;;;;;;5120441;27;61923;-78
2022/08/11 11:22:37;;;;;;;;;8.33;7.00;;;;;;;;5119521;27;61940;-77
2022/08/11 11:25:23;;;;;;;;;6.33;4.33;;;;;;;;5118358;27;61815;-77
2022/08/11 11:28:04;;;;;;;;;4.00;4.00;;;;;;;;5119541;27;62222;-77
2022/08/11 11:30:37;;;;;;;;;5.00;4.00;;;;;;;;5118391;27;61782;-78
2022/08/11 11:33:27;;;;;;;;;5.33;5.33;;;;;;;;5119463;27;62914;-77
2022/08/11 11:36:11;;;;;;;;;4.67;4.67;;;;;;;;5119960;27;61705;-78
2022/08/11 11:38:37;;;;;;;;;4.00;4.00;;;;;;;;5118358;27;61832;-78
2022/08/11 11:43:46;;;;;;;;;5.00;5.00;;;;;;;;5113159;27;61693;-77
2022/08/11 11:46:12;;;;;;;;;5.67;4.33;;;;;;;;5116161;27;61942;-77
2022/08/11 11:48:39;;;;;;;;;6.00;5.00;;;;;;;;5119611;27;61612;-78
2022/08/11 11:51:05;;;;;;;;;6.00;6.00;;;;;;;;5119989;27;61939;-78
2022/08/11 11:53:30;;;;;;;;;5.33;5.33;;;;;;;;5107592;27;61745;-79
2022/08/11 11:55:56;;;;;;;;;3.00;3.00;;;;;;;;5104060;27;62134;-77
2022/08/11 12:01:15;;;;;;;;;3.33;3.33;;;;;;;;5105692;27;61852;-78
2022/08/11 12:03:42;;;;;;;;;4.00;4.00;;;;;;;;5103800;27;62814;-78
2022/08/11 12:06:08;;;;;;;;;5.00;5.00;;;;;;;;5105600;27;61742;-78
2022/08/11 12:08:35;;;;;;;;;5.00;3.67;;;;;;;;5104073;27;61851;-78
2022/08/11 12:13:51;;;;;;;;;8.00;6.00;;;;;;;;5104682;27;61798;-78
2022/08/11 12:16:18;;;;;;;;;6.00;6.00;;;;;;;;5105204;27;61970;-78
2022/08/11 12:18:45;;;;;;;;;5.00;3.33;;;;;;;;5104168;27;62043;-78
2022/08/11 12:21:13;;;;;;;;;5.00;5.00;;;;;;;;5105433;27;61734;-78
2022/08/11 12:29:08;;;;;;;;;3.67;2.67;;;;;;;;5105665;27;61910;-78
2022/08/11 12:31:35;;;;;;;;;3.67;3.67;;;;;;;;5105036;27;61770;-78
2022/08/11 12:34:04;;;;;;;;;7.67;4.67;;;;;;;;5103319;27;63684;-78
2022/08/11 12:36:37;;;;;;;;;5.00;4.00;;;;;;;;5104805;27;62057;-78
2022/08/11 12:39:08;;;;;;;;;7.67;5.33;;;;;;;;5104799;27;61826;-78
2022/08/11 12:47:04;;;;;;;;;5.33;5.33;;;;;;;;5104598;27;61922;-78
2022/08/11 12:52:21;;;;;;;;;4.00;4.00;;;;;;;;5104825;27;61772;-78
2022/08/11 12:54:56;;;;;;;;;5.00;5.00;;;;;;;;5103566;27;62603;-78
2022/08/11 13:05:48;;;;;;;;;6.33;4.67;;;;;;;;5102732;27;61687;-78
2022/08/11 13:08:15;;;;;;;;;3.67;3.67;;;;;;;;5104453;27;61740;-78
2022/08/11 13:13:25;;;;;;;;;7.00;4.67;;;;;;;;5104979;27;61724;-79
2022/08/11 13:15:50;;;;;;;;;8.33;5.33;;;;;;;;5102274;27;65017;-79
2022/08/11 13:18:17;;;;;;;;;4.33;4.33;;;;;;;;5104526;27;61736;-79
2022/08/11 13:20:44;;;;;;;;;4.33;4.33;;;;;;;;5104536;27;61787;-79
2022/08/11 13:23:12;;;;;;;;;4.67;4.67;;;;;;;;5103942;27;61724;-79
2022/08/11 13:25:38;;;;;;;;;4.33;4.33;;;;;;;;5103667;27;61761;-79
2022/08/11 13:28:04;;;;;;;;;4.67;4.67;;;;;;;;5104223;27;61753;-78
2022/08/11 13:33:18;;;;;;;;;4.33;4.33;;;;;;;;5104540;27;62015;-79
2022/08/11 13:35:49;;;;;;;;;4.33;4.00;;;;;;;;5103597;27;62568;-79
2022/08/11 13:38:15;;;;;;;;;5.00;4.00;;;;;;;;5104158;27;61787;-79
2022/08/11 13:40:41;;;;;;;;;3.00;3.00;;;;;;;;5103830;27;61861;-79
2022/08/11 13:43:08;;;;;;;;;3.00;3.00;;;;;;;;5104224;27;61754;-78
2022/08/11 13:45:34;;;;;;;;;4.33;3.67;;;;;;;;5101676;27;62572;-79
2022/08/11 13:48:00;;;;;;;;;6.00;6.00;;;;;;;;5103899;27;61787;-79
2022/08/11 13:51:29;;;;;;;;;6.33;4.33;;;;;;;;5103809;27;61781;-79
2022/08/11 13:53:14;;;;;;;;;3.33;3.33;;;;;;;;5103559;27;61858;-78
2022/08/11 13:55:40;;;;;;;;;8.00;7.67;;;;;;;;5101804;27;63826;-79
2022/08/11 13:58:08;;;;;;;;;6.33;4.33;;;;;;;;5102409;27;62167;-79
2022/08/11 14:00:33;;;;;;;;;4.33;3.67;;;;;;;;5103731;27;61588;-79
2022/08/11 14:02:59;;;;;;;;;4.67;4.67;;;;;;;;5102644;27;62122;-79
2022/08/11 14:05:27;;;;;;;;;3.67;3.67;;;;;;;;5101631;27;63763;-79
2022/08/11 14:07:57;;;;;;;;;4.00;4.00;;;;;;;;5103404;27;61777;-79
2022/08/11 14:10:25;;;;;;;;;5.67;4.67;;;;;;;;5102388;27;61918;-79
2022/08/11 14:15:44;;;;;;;;;4.00;4.00;;;;;;;;5102428;27;61620;-79
2022/08/11 14:18:17;;;;;;;;;4.33;4.33;;;;;;;;5103626;27;61686;-79
2022/08/11 14:23:31;;;;;;;;;5.00;5.00;;;;;;;;5103346;27;61743;-79
2022/08/11 14:28:41;;;;;;;;;5.00;3.33;;;;;;;;5103437;27;61896;-79
2022/08/11 14:31:08;;;;;;;;;4.00;3.00;;;;;;;;5101758;27;61901;-79
2022/08/11 14:33:34;;;;;;;;;3.33;2.67;;;;;;;;5103723;27;61927;-79
2022/08/11 14:36:01;;;;;;;;;3.67;3.67;;;;;;;;5101912;27;62973;-79
2022/08/11 14:38:27;;;;;;;;;3.67;3.67;;;;;;;;5102069;27;61812;-79
2022/08/11 14:49:05;;;;;;;;;5.00;5.00;;;;;;;;5102478;27;61792;-79
2022/08/11 14:51:31;;;;;;;;;3.00;3.00;;;;;;;;5103382;27;61780;-79
2022/08/11 14:56:35;;;;;;;;;4.33;4.33;;;;;;;;5101419;27;61702;-79
2022/08/11 14:56:43;;;;;;;;;7.00;3.67;;;;;;;;5102417;27;62358;-79
2022/08/11 14:59:09;;;;;;;;;4.00;4.00;;;;;;;;5103142;27;61887;-79
2022/08/11 15:04:20;;;;;;;;;5.33;4.00;;;;;;;;5102985;27;61718;-79
2022/08/11 15:06:46;;;;;;;;;4.00;4.00;;;;;;;;5100562;27;62925;-79
2022/08/11 15:09:11;;;;;;;;;4.00;4.00;;;;;;;;5102954;27;61769;-79
2022/08/11 15:17:09;;;;;;;;;5.00;4.00;;;;;;;;5101651;27;61742;-79
2022/08/11 15:19:36;;;;;;;;;5.00;5.00;;;;;;;;5102510;27;61796;-79
2022/08/11 15:24:45;;;;;;;;;5.00;5.00;;;;;;;;5102530;27;61795;-79
2022/08/11 15:38:15;;;;;;;;;5.67;5.00;;;;;;;;5105441;27;61754;-79
2022/08/11 15:46:29;;;;;;;;;3.33;3.33;;;;;;;;5105255;27;61821;-79
2022/08/11 15:48:56;;;;;;;;;5.00;4.00;;;;;;;;5103935;27;63987;-79
2022/08/11 15:51:22;;;;;;;;;6.00;6.00;;;;;;;;5105464;27;61911;-79
2022/08/11 15:53:52;;;;;;;;;4.33;4.33;;;;;;;;5105650;27;61908;-79
2022/08/11 15:56:18;;;;;;;;;5.00;5.00;;;;;;;;5104657;27;62133;-79
2022/08/11 16:04:22;;;;;;;;;4.33;4.33;;;;;;;;5105604;27;61777;-79
2022/08/11 16:06:54;;;;;;;;;4.00;4.00;;;;;;;;5105953;27;61886;-79
2022/08/11 16:09:22;;;;;;;;;4.00;4.00;;;;;;;;5103844;27;63816;-79
2022/08/11 16:11:48;;;;;;;;;4.67;4.67;;;;;;;;5104378;27;61789;-79
2022/08/11 16:16:59;;;;;;;;;5.33;5.33;;;;;;;;5104843;27;62087;-79
2022/08/11 16:19:27;;;;;;;;;5.00;5.00;;;;;;;;5103396;27;63649;-79
2022/08/11 16:21:54;;;;;;;;;7.33;5.33;;;;;;;;5104155;27;61924;-79
2022/08/11 16:24:20;;;;;;;;;6.00;6.00;;;;;;;;5103719;27;61914;-79
2022/08/11 16:26:46;;;;;;;;;5.00;5.00;;;;;;;;5105378;27;61887;-79
2022/08/11 16:29:11;;;;;;;;;5.33;4.33;;;;;;;;5104499;27;62868;-79
2022/08/11 16:31:39;;;;;;;;;5.00;5.00;;;;;;;;5104633;27;61990;-79
2022/08/11 16:38:33;;;;;;;;;5.00;5.00;;;;;;;;5105497;27;61773;-79
2022/08/11 16:39:35;;;;;;;;;4.67;4.00;;;;;;;;5104516;27;61667;-79
2022/08/11 16:47:28;;;;;;;;;3.00;3.00;;;;;;;;5104769;27;61714;-79
2022/08/11 16:49:54;;;;;;;;;5.33;4.33;;;;;;;;5104434;27;61933;-79
2022/08/11 16:52:21;;;;;;;;;4.33;4.33;;;;;;;;5104773;27;61983;-79
2022/08/11 16:54:47;;;;;;;;;6.33;4.00;;;;;;;;5104468;27;62008;-79
2022/08/11 17:00:11;;;;;;;;;6.00;5.00;;;;;;;;5103761;27;61991;-78
2022/08/11 17:13:43;;;;;;;;;6.67;5.00;;;;;;;;5104332;27;61797;-77
2022/08/11 17:16:11;;;;;;;;;6.67;5.33;;;;;;;;5103924;27;62266;-77
2022/08/11 17:18:48;;;;;;;;;4.00;4.00;;;;;;;;5102209;27;61802;-78
2022/08/11 17:21:16;;;;;;;;;5.33;5.33;;;;;;;;5103499;27;62807;-77
2022/08/11 17:23:46;;;;;;;;;7.00;6.00;;;;;;;;5102366;27;61960;-77
2022/08/11 17:26:25;;;;;;;;;6.33;5.00;;;;;;;;5102774;27;61989;-76
2022/08/11 17:28:52;;;;;;;;;5.67;5.67;;;;;;;;5103293;27;62161;-76
2022/08/11 17:36:52;;;;;;;;;7.00;7.00;;;;;;;;5103721;27;61856;-80
2022/08/11 17:39:18;;;;;;;;;8.33;5.33;;;;;;;;5103701;27;62063;-79
2022/08/11 17:49:57;;;;;;;;;6.00;6.00;;;;;;;;5103866;27;61714;-81
2022/08/11 18:00:37;;;;;;;;;4.67;4.67;;;;;;;;5103980;27;61667;-80
2022/08/11 18:05:48;;;;;;;;;5.00;5.00;;;;;;;;5103098;27;61835;-77
